Time;durP1;ratioP1;P1;durP2;ratioP2;P2;SDS_P1;SDS_P2;PMS_P1;PMS_P2;Temp;Humidity;BMP_temperature;BMP_pressure;BME280_temperature;BME280_humidity;BME280_pressure;Samples;Min_cycle;Max_cycle;Signal;HPM_P1;HPM_P2
2023/10/04 00:14:23;;;;;;;1.15;0.70;;;14.40;99.90;;;;;;2627529;53;21075;31
2023/10/04 00:16:58;;;;;;;1.40;0.60;;;14.50;99.90;;;;;;2587810;54;20026;31
2023/10/04 00:19:32;;;;;;;2.15;0.75;;;14.60;99.90;;;;;;2592251;38;21710;31
2023/10/04 00:22:08;;;;;;;3.17;1.15;;;14.50;99.90;;;;;;2591233;38;20369;31
2023/10/04 00:24:44;;;;;;;3.15;0.40;;;14.50;99.90;;;;;;2607359;46;20133;31
2023/10/04 00:27:19;;;;;;;5.20;0.85;;;14.60;99.90;;;;;;2588855;54;20038;31
2023/10/04 00:29:58;;;;;;;3.00;0.70;;;14.50;99.90;;;;;;2589004;54;20854;31
2023/10/04 00:32:35;;;;;;;2.27;0.70;;;14.50;99.90;;;;;;2598956;38;21424;31
2023/10/04 00:35:13;;;;;;;3.78;0.65;;;14.40;99.90;;;;;;2588910;54;20049;31
2023/10/04 00:38:00;;;;;;;1.48;0.60;;;14.40;99.90;;;;;;2589076;54;21420;31
2023/10/04 00:40:39;;;;;;;2.05;0.70;;;14.40;99.90;;;;;;2598489;38;21432;31
2023/10/04 00:43:20;;;;;;;4.73;1.33;;;14.40;99.90;;;;;;2592042;38;21457;31
2023/10/04 00:46:01;;;;;;;4.25;0.95;;;14.30;99.90;;;;;;2588442;54;20049;31
2023/10/04 00:48:39;;;;;;;1.90;0.90;;;14.30;99.90;;;;;;2589085;54;20038;31
2023/10/04 00:51:15;;;;;;;4.90;1.33;;;14.30;99.90;;;;;;2607368;46;20081;31
2023/10/04 00:53:49;;;;;;;1.40;0.73;;;14.30;99.90;;;;;;2588640;54;20052;31
2023/10/04 00:56:29;;;;;;;1.80;1.25;;;14.20;99.90;;;;;;2607301;46;20398;31
2023/10/04 00:59:05;;;;;;;2.30;0.85;;;14.20;99.90;;;;;;2588824;54;19965;31
2023/10/04 01:01:41;;;;;;;3.30;0.80;;;14.10;99.90;;;;;;2588801;54;20046;31
2023/10/04 01:04:15;;;;;;;4.82;1.00;;;14.10;99.90;;;;;;2588756;54;20050;31
2023/10/04 01:06:58;;;;;;;2.50;1.00;;;14.00;99.90;;;;;;2588421;54;20995;31
2023/10/04 01:09:33;;;;;;;3.00;0.80;;;13.90;99.90;;;;;;2588866;54;20115;31
2023/10/04 01:12:11;;;;;;;2.90;0.90;;;13.80;99.90;;;;;;2588057;54;20092;31
2023/10/04 01:14:49;;;;;;;1.90;0.70;;;13.80;99.90;;;;;;2586053;54;20775;31
2023/10/04 01:17:28;;;;;;;1.38;0.60;;;13.70;99.90;;;;;;2595028;39;20311;31
2023/10/04 01:20:12;;;;;;;3.17;0.82;;;13.70;99.90;;;;;;2603571;46;20042;31
2023/10/04 01:22:48;;;;;;;4.78;1.08;;;13.60;99.90;;;;;;2603866;46;20038;31
2023/10/04 01:25:23;;;;;;;3.67;0.90;;;13.60;99.90;;;;;;2603940;46;20042;31
2023/10/04 01:27:59;;;;;;;5.50;1.35;;;13.50;99.90;;;;;;2584304;54;20043;31
2023/10/04 01:30:42;;;;;;;2.35;0.80;;;13.50;99.90;;;;;;2585330;54;21111;31
2023/10/04 01:33:21;;;;;;;3.60;1.15;;;13.40;99.90;;;;;;2603360;46;20362;31
2023/10/04 01:35:56;;;;;;;2.93;1.03;;;13.40;99.90;;;;;;2585252;54;20877;31
2023/10/04 01:38:47;;;;;;;2.90;0.70;;;13.30;99.90;;;;;;2585005;54;20254;31
2023/10/04 01:41:20;;;;;;;1.48;0.70;;;13.30;99.90;;;;;;2585537;54;21319;31
2023/10/04 01:44:02;;;;;;;3.95;0.80;;;13.30;99.90;;;;;;2585368;54;20065;31
2023/10/04 01:46:41;;;;;;;6.30;0.90;;;13.30;99.90;;;;;;2585222;54;20066;31
2023/10/04 01:49:17;;;;;;;2.47;0.57;;;13.30;99.90;;;;;;2584186;54;20035;31
2023/10/04 01:51:54;;;;;;;3.47;0.57;;;13.20;99.90;;;;;;2603259;46;20774;31
2023/10/04 01:54:33;;;;;;;1.85;0.70;;;13.20;99.90;;;;;;2603559;46;20441;31
2023/10/04 01:57:11;;;;;;;1.65;0.65;;;13.20;99.90;;;;;;2585232;54;20831;31
2023/10/04 01:59:46;;;;;;;4.77;0.67;;;13.30;99.90;;;;;;2585259;54;20285;31
2023/10/04 02:02:25;;;;;;;3.60;0.70;;;13.30;99.90;;;;;;2583992;54;21262;31
2023/10/04 02:05:06;;;;;;;2.50;1.05;;;13.30;99.90;;;;;;2588600;46;20817;31
2023/10/04 02:07:46;;;;;;;7.80;1.13;;;13.30;99.90;;;;;;2584250;54;20109;31
2023/10/04 02:10:28;;;;;;;8.15;0.95;;;13.30;99.90;;;;;;2585017;54;20042;31
2023/10/04 02:13:03;;;;;;;2.60;0.75;;;13.30;99.90;;;;;;2584973;54;20872;31
2023/10/04 02:15:41;;;;;;;6.15;0.95;;;13.30;99.90;;;;;;2584104;54;20198;31
2023/10/04 02:18:18;;;;;;;3.72;1.00;;;13.40;99.90;;;;;;2583996;54;20816;31
2023/10/04 02:20:59;;;;;;;5.60;0.90;;;13.30;99.90;;;;;;2585179;54;20049;31
2023/10/04 02:23:32;;;;;;;6.50;0.90;;;13.40;99.90;;;;;;2603614;46;20714;31
2023/10/04 02:26:09;;;;;;;6.75;1.10;;;13.40;99.90;;;;;;2597073;46;20040;31
2023/10/04 02:28:51;;;;;;;2.03;0.73;;;13.40;99.90;;;;;;2585031;54;20045;31
2023/10/04 02:31:29;;;;;;;5.57;0.80;;;13.40;99.90;;;;;;2585336;54;20883;31
2023/10/04 02:34:10;;;;;;;5.57;0.80;;;13.50;99.90;;;;;;2585468;54;20860;31
2023/10/04 02:36:44;;;;;;;2.95;1.08;;;13.40;99.90;;;;;;2584540;54;20058;31
2023/10/04 02:39:24;;;;;;;6.05;1.10;;;13.40;99.90;;;;;;2603461;46;20026;31
2023/10/04 02:42:09;;;;;;;2.17;1.02;;;13.40;99.90;;;;;;2585080;54;20856;31
2023/10/04 02:44:43;;;;;;;3.72;1.00;;;13.40;99.90;;;;;;2584690;54;20038;31
2023/10/04 02:47:20;;;;;;;3.35;1.20;;;13.30;99.90;;;;;;2584800;54;20906;31
2023/10/04 02:49:58;;;;;;;2.20;1.10;;;13.30;99.90;;;;;;2585075;54;20125;31
2023/10/04 02:52:32;;;;;;;2.63;1.00;;;13.30;99.90;;;;;;2603264;46;20242;31
2023/10/04 02:55:06;;;;;;;1.73;1.25;;;13.20;99.90;;;;;;2584946;54;20045;31
2023/10/04 02:57:49;;;;;;;4.45;1.83;;;13.20;99.90;;;;;;2585240;54;20778;31
2023/10/04 03:00:24;;;;;;;5.60;1.40;;;13.20;99.90;;;;;;2603490;46;20845;31
2023/10/04 03:03:13;;;;;;;4.00;1.20;;;13.30;99.90;;;;;;2584760;54;20030;31
2023/10/04 03:05:51;;;;;;;7.47;2.40;;;13.30;99.90;;;;;;2585396;54;20051;31
2023/10/04 03:08:32;;;;;;;3.88;1.40;;;13.30;99.90;;;;;;2603630;46;20646;31
2023/10/04 03:11:15;;;;;;;3.22;1.10;;;13.40;99.90;;;;;;2584939;54;20026;31
2023/10/04 03:13:59;;;;;;;2.00;1.30;;;13.40;99.90;;;;;;2583825;54;20026;31
2023/10/04 03:16:37;;;;;;;3.10;1.20;;;13.40;99.90;;;;;;2603775;46;20255;31
2023/10/04 03:19:12;;;;;;;4.10;1.30;;;13.40;99.90;;;;;;2603384;46;20787;31
2023/10/04 03:21:47;;;;;;;3.63;1.20;;;13.40;99.90;;;;;;2585017;54;20850;31
2023/10/04 03:24:23;;;;;;;3.55;1.20;;;13.40;99.90;;;;;;2584774;54;20852;31
2023/10/04 03:27:04;;;;;;;4.35;1.20;;;13.40;99.90;;;;;;2585129;54;20749;31
2023/10/04 03:29:43;;;;;;;5.50;1.47;;;13.30;99.90;;;;;;2584848;54;20855;31
2023/10/04 03:32:16;;;;;;;3.72;1.60;;;13.30;99.90;;;;;;2584731;54;20881;31
2023/10/04 03:34:54;;;;;;;5.97;1.27;;;13.30;99.90;;;;;;2584381;54;20153;31
2023/10/04 03:37:39;;;;;;;6.15;1.20;;;13.30;99.90;;;;;;2584817;54;20022;31
2023/10/04 03:40:17;;;;;;;2.65;1.30;;;13.30;99.90;;;;;;2603158;46;20046;31
2023/10/04 03:42:55;;;;;;;5.15;1.20;;;13.30;99.90;;;;;;2606371;46;20954;31
2023/10/04 03:45:32;;;;;;;7.30;1.55;;;13.30;99.90;;;;;;2584234;54;21112;31
2023/10/04 03:48:15;;;;;;;2.15;0.80;;;13.30;99.90;;;;;;2584791;54;20933;31
2023/10/04 03:51:07;;;;;;;2.35;0.93;;;13.30;99.90;;;;;;2603434;46;20030;31
2023/10/04 03:53:53;;;;;;;5.73;1.20;;;13.30;99.90;;;;;;2584616;54;20022;31
2023/10/04 03:56:35;;;;;;;2.40;0.82;;;13.30;99.90;;;;;;2584640;54;20030;31
2023/10/04 03:59:11;;;;;;;5.57;1.25;;;13.40;99.90;;;;;;2584333;54;20108;31
2023/10/04 04:01:48;;;;;;;2.80;1.00;;;13.40;99.90;;;;;;2603351;46;20113;31
2023/10/04 04:04:26;;;;;;;1.98;0.90;;;13.30;99.90;;;;;;2585371;54;21034;31
2023/10/04 04:07:19;;;;;;;2.70;1.10;;;13.30;99.90;;;;;;2584086;54;20141;31
2023/10/04 04:10:01;;;;;;;9.20;1.30;;;13.30;99.90;;;;;;2585447;54;20030;31
2023/10/04 04:12:36;;;;;;;3.72;1.23;;;13.30;99.90;;;;;;2584779;54;20971;31
2023/10/04 04:15:14;;;;;;;6.82;1.02;;;13.30;99.90;;;;;;2583899;54;20080;31
2023/10/04 04:17:54;;;;;;;7.90;1.20;;;13.30;99.90;;;;;;2583801;54;20884;31
2023/10/04 04:20:32;;;;;;;3.97;0.90;;;13.30;99.90;;;;;;2584561;54;21514;31
2023/10/04 04:23:12;;;;;;;5.70;1.00;;;13.30;99.90;;;;;;2584652;54;20038;31
2023/10/04 04:25:51;;;;;;;4.68;0.98;;;13.30;99.90;;;;;;2584565;54;20038;31
2023/10/04 04:28:29;;;;;;;5.45;1.00;;;13.30;99.90;;;;;;2603270;47;20882;31
2023/10/04 04:31:09;;;;;;;6.15;0.90;;;13.20;99.90;;;;;;2588151;47;21212;31
2023/10/04 04:33:46;;;;;;;5.30;0.95;;;13.20;99.90;;;;;;2584674;54;20043;31
2023/10/04 04:36:25;;;;;;;3.63;1.15;;;13.10;99.90;;;;;;2602609;47;20507;31
2023/10/04 04:39:11;;;;;;;3.35;0.95;;;13.10;99.90;;;;;;2606210;39;21379;31
2023/10/04 04:41:51;;;;;;;5.43;1.13;;;13.00;99.90;;;;;;2584293;54;20958;31
2023/10/04 04:44:38;;;;;;;4.30;0.80;;;13.00;99.90;;;;;;2584778;54;20892;31
2023/10/04 04:47:16;;;;;;;3.75;1.00;;;13.00;99.90;;;;;;2588030;39;21451;31
2023/10/04 04:50:03;;;;;;;2.90;0.70;;;13.10;99.90;;;;;;2585072;54;21479;31
2023/10/04 04:52:45;;;;;;;6.50;1.00;;;13.00;99.90;;;;;;2585266;54;20153;31
2023/10/04 04:55:26;;;;;;;1.60;0.70;;;13.00;99.90;;;;;;2584347;54;20894;31
2023/10/04 04:58:00;;;;;;;3.63;1.38;;;13.10;99.90;;;;;;2585168;54;20258;31
2023/10/04 05:00:43;;;;;;;2.17;0.73;;;13.00;99.90;;;;;;2603517;46;20042;31
2023/10/04 05:03:18;;;;;;;3.47;0.90;;;13.10;99.90;;;;;;2588773;39;21424;31
2023/10/04 05:05:56;;;;;;;2.30;0.85;;;13.00;99.90;;;;;;2603548;46;20042;31
2023/10/04 05:08:31;;;;;;;5.75;1.20;;;13.00;99.90;;;;;;2599352;46;20987;31
2023/10/04 05:11:09;;;;;;;8.10;0.90;;;12.90;99.90;;;;;;2585390;54;20789;31
2023/10/04 05:13:44;;;;;;;1.40;0.50;;;12.90;99.90;;;;;;2585566;54;20142;31
2023/10/04 05:16:18;;;;;;;1.80;0.70;;;12.90;99.90;;;;;;2604203;46;20782;31
2023/10/04 05:19:00;;;;;;;3.95;0.80;;;12.80;99.90;;;;;;2585399;54;20417;31
2023/10/04 05:21:37;;;;;;;3.20;0.50;;;12.80;99.90;;;;;;2603719;46;20054;31
2023/10/04 05:24:17;;;;;;;5.07;1.20;;;12.90;99.90;;;;;;2603762;46;20055;31
2023/10/04 05:26:55;;;;;;;1.98;0.50;;;12.80;99.90;;;;;;2584264;54;20034;31
2023/10/04 05:29:39;;;;;;;2.33;0.47;;;12.80;99.90;;;;;;2584267;54;20054;31
2023/10/04 05:32:12;;;;;;;2.00;0.70;;;12.80;99.90;;;;;;2585149;54;20042;31
2023/10/04 05:34:50;;;;;;;2.45;0.90;;;12.80;99.90;;;;;;2585498;54;20403;31
2023/10/04 05:37:33;;;;;;;3.03;0.95;;;12.80;99.90;;;;;;2585348;54;20038;31
2023/10/04 05:40:25;;;;;;;1.65;0.55;;;12.90;99.90;;;;;;2588520;39;21406;31
2023/10/04 05:43:06;;;;;;;1.70;0.80;;;13.00;99.90;;;;;;2585034;54;20156;31
2023/10/04 05:45:43;;;;;;;4.20;0.80;;;13.20;99.90;;;;;;2584395;54;20055;31
2023/10/04 05:48:19;;;;;;;2.35;0.50;;;13.50;99.90;;;;;;2584223;54;20048;31
2023/10/04 05:50:54;;;;;;;1.45;0.40;;;13.70;99.90;;;;;;2585064;54;20458;31
2023/10/04 05:53:32;;;;;;;4.13;0.80;;;14.00;99.90;;;;;;2603675;46;20941;31
2023/10/04 05:56:09;;;;;;;5.67;0.77;;;14.30;99.90;;;;;;2603344;46;20038;31
2023/10/04 05:58:53;;;;;;;4.20;0.80;;;14.50;99.90;;;;;;2585144;54;20067;31
2023/10/04 06:01:28;;;;;;;3.83;0.60;;;14.80;99.90;;;;;;2584380;54;20061;31
2023/10/04 06:04:01;;;;;;;1.50;0.50;;;15.10;99.90;;;;;;2585057;54;20320;31
2023/10/04 06:06:45;;;;;;;1.40;0.60;;;15.40;99.90;;;;;;2585024;54;20053;31
2023/10/04 06:15:13;;;;;;;3.67;0.85;;;16.50;99.90;;;;;;2612708;39;20335;31
2023/10/04 06:17:53;;;;;;;4.30;0.77;;;17.00;99.90;;;;;;2585188;54;19950;31
2023/10/04 06:20:34;;;;;;;4.50;0.70;;;17.20;99.90;;;;;;2585257;54;20880;31
2023/10/04 06:23:25;;;;;;;3.13;0.87;;;17.50;99.90;;;;;;2603319;46;20062;31
2023/10/04 06:32:22;;;;;;;1.98;1.00;;;18.20;99.90;;;;;;2603254;46;20050;31
2023/10/04 06:38:28;;;;;;;2.00;0.40;;;18.60;99.90;;;;;;2603229;46;20037;31
2023/10/04 06:41:26;;;;;;;;;;;;;;;;;;;;;
2023/10/04 06:47:24;;;;;;;1.83;0.63;;;19.00;99.90;;;;;;2603341;46;21199;31
2023/10/04 06:50:06;;;;;;;2.00;0.67;;;19.00;99.90;;;;;;2584358;54;20034;31
2023/10/04 06:55:59;;;;;;;3.67;0.77;;;19.40;99.90;;;;;;2584390;54;20976;31
2023/10/04 07:02:16;;;;;;;1.55;0.70;;;19.50;99.90;;;;;;2585024;54;20886;31
2023/10/04 07:05:05;;;;;;;2.28;0.80;;;19.40;99.90;;;;;;2603301;46;20045;31
2023/10/04 07:10:36;;;;;;;2.30;0.80;;;19.60;99.90;;;;;;2584794;54;20042;31
2023/10/04 07:13:16;;;;;;;0.90;0.50;;;19.40;99.90;;;;;;2592443;46;20173;31
2023/10/04 07:15:55;;;;;;;2.05;0.70;;;19.50;99.90;;;;;;2584544;54;20058;31
2023/10/04 07:18:37;;;;;;;5.50;1.20;;;19.50;99.90;;;;;;2603156;46;20026;31
2023/10/04 07:21:15;;;;;;;2.40;0.68;;;19.70;99.90;;;;;;2611719;39;21179;31
2023/10/04 07:23:54;;;;;;;2.72;0.63;;;19.80;99.90;;;;;;2584880;54;20089;31
2023/10/04 07:29:52;;;;;;;3.35;0.50;;;19.90;99.90;;;;;;2593479;39;22164;31
2023/10/04 07:32:41;;;;;;;2.47;0.80;;;20.10;99.90;;;;;;2603007;46;20030;31
2023/10/04 07:35:31;;;;;;;2.90;0.80;;;20.00;99.90;;;;;;2603469;46;20022;31
2023/10/04 07:41:20;;;;;;;2.10;0.70;;;19.80;99.90;;;;;;2584803;54;20028;31
2023/10/04 07:44:00;;;;;;;4.05;0.65;;;19.80;99.90;;;;;;2583886;54;20062;31
2023/10/04 07:46:42;;;;;;;2.65;0.80;;;19.80;99.90;;;;;;2583649;54;20061;31
2023/10/04 07:49:55;;;;;;;4.15;0.75;;;19.90;99.90;;;;;;2584732;54;20030;31
2023/10/04 07:52:42;;;;;;;5.85;0.95;;;20.00;99.90;;;;;;2584847;54;20038;31
2023/10/04 07:55:40;;;;;;;1.60;0.60;;;19.90;99.90;;;;;;2584393;54;20030;31
2023/10/04 07:58:30;;;;;;;3.95;1.00;;;19.80;99.90;;;;;;2584664;54;20027;31
2023/10/04 08:01:28;;;;;;;2.25;0.50;;;19.90;99.90;;;;;;2584796;54;20026;31
2023/10/04 08:04:08;;;;;;;3.22;0.60;;;19.80;99.90;;;;;;2602932;46;20045;31
2023/10/04 08:06:52;;;;;;;2.08;0.88;;;20.00;99.90;;;;;;2584011;54;20030;31
2023/10/04 08:09:30;;;;;;;2.45;0.68;;;20.00;99.90;;;;;;2586118;54;20756;31
2023/10/04 08:12:12;;;;;;;4.93;0.90;;;20.00;99.90;;;;;;2585865;54;20847;31
2023/10/04 08:14:47;;;;;;;2.58;0.47;;;20.10;99.90;;;;;;2950960;47;19915;-95
2023/10/04 08:17:36;;;;;;;1.13;0.57;;;20.10;99.90;;;;;;2632148;54;20041;-94
2023/10/04 08:26:59;;;;;;;2.80;0.53;;;20.10;99.90;;;;;;2590906;46;20894;31
2023/10/04 08:33:09;;;;;;;2.95;0.98;;;20.10;99.90;;;;;;2605272;46;20053;31
2023/10/04 08:49:00;;;;;;;2.33;0.80;;;19.70;99.90;;;;;;2626703;53;21201;31
2023/10/04 08:51:44;;;;;;;4.10;0.73;;;19.70;99.90;;;;;;2587978;54;20163;31
2023/10/04 08:54:19;;;;;;;2.25;0.70;;;19.60;99.90;;;;;;2605905;46;20049;31
2023/10/04 08:56:57;;;;;;;4.35;0.80;;;19.40;99.90;;;;;;2588158;54;20773;31
2023/10/04 08:59:32;;;;;;;3.35;0.70;;;19.40;99.90;;;;;;2587537;54;20306;31
2023/10/04 09:02:07;;;;;;;1.77;0.45;;;19.30;99.90;;;;;;2601781;46;19954;31
2023/10/04 09:04:47;;;;;;;2.78;0.68;;;19.30;99.90;;;;;;2588140;54;19950;31
2023/10/04 09:07:29;;;;;;;2.55;0.75;;;19.20;99.90;;;;;;2587969;54;20026;31
2023/10/04 09:10:15;;;;;;;2.70;0.80;;;19.10;99.90;;;;;;2587458;54;20077;31
2023/10/04 09:12:47;;;;;;;3.35;0.70;;;18.90;99.90;;;;;;2587895;54;21671;31
2023/10/04 09:15:31;;;;;;;3.55;0.55;;;18.80;99.90;;;;;;2593043;38;21227;31
2023/10/04 09:18:07;;;;;;;3.40;0.77;;;18.70;99.90;;;;;;2587367;54;20081;31
2023/10/04 09:20:44;;;;;;;;;;;18.70;99.90;;;;;;2587682;54;20045;31
2023/10/04 09:23:22;;;;;;;3.22;0.90;;;18.60;99.90;;;;;;2587361;54;19973;31
2023/10/04 09:25:58;;;;;;;3.72;0.80;;;18.50;99.90;;;;;;2597225;38;22210;31
2023/10/04 09:28:40;;;;;;;2.80;0.70;;;18.40;99.90;;;;;;2606524;46;20863;31
2023/10/04 09:31:19;;;;;;;2.40;1.00;;;18.30;99.90;;;;;;2587910;54;20826;31
2023/10/04 09:33:54;;;;;;;3.35;0.75;;;18.30;99.90;;;;;;2587627;54;20846;31
2023/10/04 09:36:42;;;;;;;3.55;1.10;;;18.40;99.90;;;;;;2587415;54;20093;31
2023/10/04 09:39:23;;;;;;;3.03;0.80;;;18.30;99.90;;;;;;2606226;46;20925;31
2023/10/04 09:41:59;;;;;;;5.80;0.90;;;18.30;99.90;;;;;;2606054;46;20745;31
2023/10/04 09:44:37;;;;;;;2.60;0.55;;;18.20;99.90;;;;;;2606164;46;20036;31
2023/10/04 09:49:54;;;;;;;2.35;0.95;;;18.30;99.90;;;;;;2589052;39;20517;31
2023/10/04 09:52:34;;;;;;;2.13;1.00;;;18.30;99.90;;;;;;2602478;46;20031;31
2023/10/04 09:55:13;;;;;;;2.97;0.80;;;18.40;99.90;;;;;;2583129;54;20161;31
2023/10/04 09:57:52;;;;;;;2.78;0.75;;;18.40;99.90;;;;;;2583936;54;20306;31
2023/10/04 10:00:29;;;;;;;1.90;0.50;;;18.30;99.90;;;;;;2584303;54;20038;31
2023/10/04 10:03:09;;;;;;;1.77;0.50;;;18.40;99.90;;;;;;2602839;46;20030;31
2023/10/04 10:05:48;;;;;;;1.00;0.45;;;18.50;99.90;;;;;;2584414;54;20137;31
2023/10/04 10:08:28;;;;;;;2.60;0.77;;;18.50;99.90;;;;;;2584222;54;19942;31
2023/10/04 10:11:06;;;;;;;9.13;0.70;;;18.40;99.90;;;;;;2584324;54;20057;31
2023/10/04 10:13:42;;;;;;;1.70;0.55;;;18.40;99.90;;;;;;2582970;54;20878;31
2023/10/04 10:16:29;;;;;;;4.50;1.10;;;18.40;99.90;;;;;;2586210;46;20885;31
2023/10/04 10:19:08;;;;;;;6.65;0.88;;;18.40;99.90;;;;;;2607571;39;21642;31
2023/10/04 10:22:10;;;;;;;4.07;0.93;;;18.30;99.90;;;;;;2583048;54;20994;31
2023/10/04 10:24:53;;;;;;;3.03;0.93;;;18.30;99.90;;;;;;2584197;54;20057;31
2023/10/04 10:27:28;;;;;;;2.45;0.80;;;18.30;99.90;;;;;;2602727;46;20876;31
2023/10/04 10:30:08;;;;;;;5.35;0.70;;;18.20;99.90;;;;;;2594020;39;22203;31
2023/10/04 10:32:54;;;;;;;2.85;0.70;;;18.20;99.90;;;;;;2583222;54;20030;31
2023/10/04 10:35:59;;;;;;;2.33;0.60;;;18.20;99.90;;;;;;2602705;46;22084;31
2023/10/04 10:38:47;;;;;;;2.55;0.60;;;18.30;99.90;;;;;;2584801;39;20899;31
2023/10/04 10:42:07;;;;;;;4.22;1.00;;;18.30;99.90;;;;;;2602611;46;20789;31
2023/10/04 10:44:53;;;;;;;3.53;0.53;;;18.30;99.90;;;;;;2602552;46;20039;31
2023/10/04 10:47:30;;;;;;;5.43;1.13;;;18.40;99.90;;;;;;2584471;54;22117;31
2023/10/04 10:52:49;;;;;;;2.03;0.80;;;18.50;99.90;;;;;;2584796;39;22074;31
2023/10/04 10:55:28;;;;;;;4.20;0.75;;;18.40;99.90;;;;;;2602333;46;20863;31
2023/10/04 10:58:04;;;;;;;3.67;0.90;;;18.40;99.90;;;;;;2584037;54;20979;31
2023/10/04 11:00:40;;;;;;;;;;;18.40;99.90;;;;;;2584237;54;22155;31
2023/10/04 11:03:17;;;;;;;3.80;1.00;;;18.30;99.90;;;;;;2583991;54;20860;31
2023/10/04 11:06:01;;;;;;;3.15;0.90;;;18.40;99.90;;;;;;2583247;54;21732;31
2023/10/04 11:08:37;;;;;;;3.33;0.55;;;18.30;99.90;;;;;;2583848;54;20419;31
2023/10/04 11:11:13;;;;;;;3.87;0.87;;;18.40;99.90;;;;;;2602144;46;20983;31
2023/10/04 11:13:48;;;;;;;6.22;0.90;;;18.40;99.90;;;;;;2584245;39;21887;31
2023/10/04 11:16:33;;;;;;;2.30;0.75;;;18.40;99.90;;;;;;2584058;54;20858;31
2023/10/04 11:19:12;;;;;;;3.13;0.90;;;18.30;99.90;;;;;;2602480;46;20062;31
2023/10/04 11:21:55;;;;;;;3.65;0.73;;;18.40;99.90;;;;;;2602513;46;21007;31
2023/10/04 11:24:45;;;;;;;1.40;0.60;;;18.40;99.90;;;;;;2583808;54;20042;31
2023/10/04 11:27:24;;;;;;;3.42;0.77;;;18.40;99.90;;;;;;2588705;46;20086;31
2023/10/04 11:30:04;;;;;;;4.50;1.10;;;18.30;99.90;;;;;;2602247;46;20112;31
2023/10/04 11:32:49;;;;;;;3.20;0.70;;;18.30;99.90;;;;;;2583488;54;20844;31
2023/10/04 11:35:34;;;;;;;4.55;0.93;;;18.30;99.90;;;;;;2583247;54;24802;31
2023/10/04 11:38:19;;;;;;;4.30;1.10;;;18.20;99.90;;;;;;2583348;54;20050;31
2023/10/04 11:40:57;;;;;;;3.95;1.00;;;18.20;99.90;;;;;;2583693;54;21130;31
2023/10/04 11:43:34;;;;;;;2.65;0.55;;;18.20;99.90;;;;;;2583764;54;20999;31
2023/10/04 11:46:11;;;;;;;2.95;0.60;;;18.10;99.90;;;;;;2602283;46;21070;31
2023/10/04 11:48:51;;;;;;;4.07;0.98;;;18.10;99.90;;;;;;2583732;54;20110;31
2023/10/04 11:51:33;;;;;;;3.75;0.80;;;18.20;99.90;;;;;;2588283;39;20237;31
2023/10/04 11:54:11;;;;;;;4.50;1.00;;;18.20;99.90;;;;;;2602075;46;20887;31
2023/10/04 11:59:40;;;;;;;2.47;0.70;;;18.30;99.90;;;;;;2618156;39;22247;31
2023/10/04 12:02:16;;;;;;;3.40;0.80;;;18.40;99.90;;;;;;2584015;54;20861;31
2023/10/04 12:04:56;;;;;;;0.95;0.50;;;18.50;99.90;;;;;;2583746;39;21322;31
2023/10/04 12:07:32;;;;;;;1.85;0.70;;;18.50;99.90;;;;;;2602076;46;20104;31
2023/10/04 12:10:15;;;;;;;3.70;0.93;;;18.50;99.90;;;;;;2582741;54;20361;31
2023/10/04 12:12:57;;;;;;;3.50;0.60;;;18.50;99.90;;;;;;2583346;54;19958;31
2023/10/04 12:15:36;;;;;;;4.40;1.00;;;18.60;99.90;;;;;;2602156;46;20047;31
2023/10/04 12:18:15;;;;;;;3.15;0.85;;;18.60;99.90;;;;;;2601827;46;20198;31
2023/10/04 12:20:52;;;;;;;4.03;1.00;;;18.50;99.90;;;;;;2583541;54;20133;31
2023/10/04 12:23:32;;;;;;;4.47;0.82;;;18.50;99.90;;;;;;2602100;46;20925;31
2023/10/04 12:26:15;;;;;;;5.93;1.13;;;18.50;99.90;;;;;;2583057;54;20123;31
2023/10/04 12:28:51;;;;;;;3.28;0.77;;;18.50;99.90;;;;;;2610669;31;22275;31
2023/10/04 12:31:26;;;;;;;4.47;0.90;;;18.50;99.90;;;;;;2583917;54;20088;31
2023/10/04 12:34:07;;;;;;;3.42;0.77;;;18.50;99.90;;;;;;2601863;46;20042;31
2023/10/04 12:36:44;;;;;;;3.60;1.08;;;18.50;99.90;;;;;;2583868;54;20042;31
2023/10/04 12:39:38;;;;;;;3.97;0.93;;;18.50;99.90;;;;;;2583399;54;20171;31
2023/10/04 12:42:14;;;;;;;3.50;0.70;;;18.60;99.90;;;;;;2602294;47;20039;31
2023/10/04 12:44:54;;;;;;;2.10;0.98;;;18.60;99.90;;;;;;2583839;54;21136;31
2023/10/04 12:47:52;;;;;;;5.60;1.05;;;18.50;99.90;;;;;;2613580;39;21154;31
2023/10/04 12:50:33;;;;;;;3.55;0.85;;;18.30;99.90;;;;;;2583814;54;20918;31
2023/10/04 12:53:09;;;;;;;2.58;0.95;;;18.20;99.90;;;;;;2582388;54;20999;31
2023/10/04 12:55:50;;;;;;;4.60;1.02;;;18.10;99.90;;;;;;2582910;54;20326;31
2023/10/04 12:58:24;;;;;;;3.90;1.08;;;18.10;99.90;;;;;;2581503;54;21283;31
2023/10/04 13:01:12;;;;;;;1.95;0.90;;;18.10;99.90;;;;;;2600847;47;20397;31
2023/10/04 13:03:51;;;;;;;2.83;0.90;;;18.20;99.90;;;;;;2583212;54;20104;31
2023/10/04 13:06:33;;;;;;;1.90;0.73;;;18.20;99.90;;;;;;2601814;47;21396;31
2023/10/04 13:09:15;;;;;;;3.15;0.80;;;18.20;99.90;;;;;;2601804;47;20981;31
2023/10/04 13:12:00;;;;;;;5.33;0.80;;;18.10;99.90;;;;;;2583660;54;20050;31
2023/10/04 13:14:36;;;;;;;4.97;0.97;;;18.10;99.90;;;;;;2583472;54;20034;31
2023/10/04 13:17:16;;;;;;;1.80;0.50;;;18.10;99.90;;;;;;2583234;54;21201;31
2023/10/04 13:19:52;;;;;;;3.45;0.80;;;18.10;99.90;;;;;;2599460;47;20998;31
2023/10/04 13:22:30;;;;;;;5.85;0.90;;;18.10;99.90;;;;;;2596306;47;20035;31
2023/10/04 13:25:09;;;;;;;1.83;0.93;;;18.10;99.90;;;;;;2602499;47;19934;31
2023/10/04 13:27:47;;;;;;;4.20;1.02;;;18.10;99.90;;;;;;2584284;54;20776;31
2023/10/04 13:30:31;;;;;;;2.53;0.88;;;18.10;99.90;;;;;;2602564;46;22223;31
2023/10/04 13:33:28;;;;;;;2.53;0.73;;;18.10;99.90;;;;;;2602845;46;20029;31
2023/10/04 13:36:05;;;;;;;6.30;0.90;;;18.10;99.90;;;;;;2584442;54;22198;31
2023/10/04 13:38:43;;;;;;;1.55;0.70;;;18.00;99.90;;;;;;2606950;39;21372;31
2023/10/04 13:41:22;;;;;;;5.90;1.10;;;18.00;99.90;;;;;;2582986;54;20038;31
2023/10/04 13:44:05;;;;;;;2.60;0.95;;;17.90;99.90;;;;;;2583567;54;20038;31
2023/10/04 13:46:43;;;;;;;3.40;0.80;;;17.80;99.90;;;;;;2583163;54;20702;31
2023/10/04 13:49:24;;;;;;;3.30;0.70;;;17.70;99.90;;;;;;2589708;39;21453;31
2023/10/04 13:52:13;;;;;;;2.60;0.77;;;17.70;99.90;;;;;;2586888;46;20921;31
2023/10/04 13:54:52;;;;;;;3.90;1.00;;;17.70;99.90;;;;;;2584347;54;20759;31
2023/10/04 13:57:38;;;;;;;3.80;1.10;;;17.80;99.90;;;;;;2583923;54;20832;31
2023/10/04 14:00:22;;;;;;;2.57;0.80;;;17.70;99.90;;;;;;2584284;54;20051;31
2023/10/04 14:02:59;;;;;;;;;;;17.70;99.90;;;;;;2584457;54;21072;31
2023/10/04 14:05:36;;;;;;;4.25;1.25;;;17.70;99.90;;;;;;2584150;54;20839;31
2023/10/04 14:08:19;;;;;;;4.95;1.20;;;17.70;99.90;;;;;;2602243;46;20842;31
2023/10/04 14:10:58;;;;;;;2.57;0.90;;;17.70;99.90;;;;;;2584345;39;21237;31
2023/10/04 14:13:33;;;;;;;4.97;1.43;;;17.80;99.90;;;;;;2593774;39;22120;31
2023/10/04 14:19:17;;;;;;;3.50;1.23;;;17.80;99.90;;;;;;2584013;54;19935;31
2023/10/04 14:21:57;;;;;;;4.40;1.00;;;17.70;99.90;;;;;;2593485;39;22102;31
2023/10/04 14:24:35;;;;;;;5.10;1.20;;;17.70;99.90;;;;;;2602640;46;20826;31
2023/10/04 14:27:16;;;;;;;4.10;1.25;;;17.60;99.90;;;;;;2602350;46;20858;31
2023/10/04 14:29:54;;;;;;;4.68;1.40;;;17.60;99.90;;;;;;2583456;54;20043;31
2023/10/04 14:32:32;;;;;;;4.90;1.40;;;17.60;99.90;;;;;;2591631;46;20036;31
2023/10/04 14:35:14;;;;;;;3.95;1.30;;;17.60;99.90;;;;;;2582853;54;19942;31
2023/10/04 14:37:50;;;;;;;3.40;1.07;;;17.60;99.90;;;;;;2583094;54;19934;31
2023/10/04 14:40:28;;;;;;;3.97;1.60;;;17.50;99.90;;;;;;2602422;46;20756;31
2023/10/04 14:43:21;;;;;;;4.82;1.50;;;17.50;99.90;;;;;;2584053;54;20111;31
2023/10/04 14:46:03;;;;;;;4.22;1.10;;;17.50;99.90;;;;;;2602852;46;20890;31
2023/10/04 14:48:42;;;;;;;4.43;1.13;;;17.50;99.90;;;;;;2589534;39;20217;31
2023/10/04 14:51:25;;;;;;;3.60;1.00;;;17.50;99.90;;;;;;2602624;46;20859;31
2023/10/04 14:54:01;;;;;;;2.75;1.20;;;17.50;99.90;;;;;;2602564;46;20892;31
2023/10/04 14:56:43;;;;;;;4.32;1.10;;;17.50;99.90;;;;;;2583121;54;20042;31
2023/10/04 14:59:34;;;;;;;4.30;1.50;;;17.50;99.90;;;;;;2602538;46;20909;31
2023/10/04 15:02:25;;;;;;;4.00;1.20;;;17.40;99.90;;;;;;2583801;54;20141;31
2023/10/04 15:08:09;;;;;;;2.30;1.03;;;17.30;99.90;;;;;;2584157;54;22201;31
2023/10/04 15:10:54;;;;;;;5.55;1.40;;;17.30;99.90;;;;;;2584087;54;20853;31
2023/10/04 15:13:31;;;;;;;5.35;1.50;;;17.20;99.90;;;;;;2583748;54;20934;31
2023/10/04 15:16:11;;;;;;;5.37;1.90;;;17.20;99.90;;;;;;2583909;54;20989;31
2023/10/04 15:18:53;;;;;;;3.72;1.45;;;17.20;99.90;;;;;;2606833;39;20267;31
2023/10/04 15:59:27;;;;;;;2.53;1.13;;;16.60;99.90;;;;;;2602491;54;19934;31
2023/10/04 16:27:06;;;;;;;7.50;3.10;;;16.00;99.90;;;;;;2601005;54;20034;31
2023/10/04 16:36:13;;;;;;;8.73;2.53;;;15.70;99.90;;;;;;2582846;54;20259;31
2023/10/04 17:17:53;;;;;;;5.38;2.15;;;15.00;99.90;;;;;;2585146;54;20056;31
2023/10/04 17:20:34;;;;;;;6.00;2.00;;;14.90;99.90;;;;;;2585869;54;21838;31